createdAt,value
2023-02-27T00:00:52.048Z,95839.00
2023-02-27T00:01:51.098Z,95837.00
2023-02-27T00:02:51.200Z,95841.00
2023-02-27T00:03:52.317Z,95841.00
2023-02-27T00:04:52.292Z,95841.00
2023-02-27T00:05:52.323Z,95839.00
2023-02-27T00:06:52.405Z,95841.00
2023-02-27T00:07:52.447Z,95843.00
2023-02-27T00:08:52.573Z,95841.00
2023-02-27T00:09:51.566Z,95843.00
2023-02-27T00:10:52.623Z,95841.00
2023-02-27T00:11:52.684Z,95841.00
2023-02-27T00:12:52.729Z,95846.00
2023-02-27T00:13:52.798Z,95845.00
2023-02-27T00:14:51.848Z,95845.00
2023-02-27T00:15:52.933Z,95846.00
2023-02-27T00:16:52.963Z,95845.00
2023-02-27T00:17:53.048Z,95845.00
2023-02-27T00:18:52.075Z,95846.00
2023-02-27T00:19:53.123Z,95846.00
2023-02-27T00:20:53.193Z,95848.00
2023-02-27T00:21:53.243Z,95845.00
2023-02-27T00:22:53.305Z,95846.00
2023-02-27T00:23:53.359Z,95846.00
2023-02-27T00:24:53.434Z,95846.00
2023-02-27T00:25:52.464Z,95845.00
2023-02-27T00:26:53.531Z,95845.00
2023-02-27T00:27:53.573Z,95846.00
2023-02-27T00:28:53.727Z,95845.00
2023-02-27T00:29:53.693Z,95843.00
2023-02-27T00:30:52.822Z,95843.00
2023-02-27T00:31:53.936Z,95846.00
2023-02-27T00:32:53.872Z,95843.00
2023-02-27T00:33:53.960Z,95845.00
2023-02-27T00:34:53.998Z,95850.00
2023-02-27T00:35:54.064Z,95845.00
2023-02-27T00:36:54.133Z,95843.00
2023-02-27T00:37:53.185Z,95846.00
2023-02-27T00:38:54.249Z,95845.00
2023-02-27T00:39:54.300Z,95845.00
2023-02-27T00:40:54.381Z,95846.00
2023-02-27T00:41:54.410Z,95843.00
2023-02-27T00:42:54.484Z,95846.00
2023-02-27T00:43:54.551Z,95845.00
2023-02-27T00:44:54.591Z,95845.00
2023-02-27T00:45:54.649Z,95846.00
2023-02-27T00:46:54.763Z,95848.00
2023-02-27T00:47:54.752Z,95845.00
2023-02-27T00:48:54.815Z,95843.00
2023-02-27T00:49:54.866Z,95846.00
2023-02-27T00:50:54.940Z,95848.00
2023-02-27T00:51:55.040Z,95848.00
2023-02-27T00:52:55.065Z,95848.00
2023-02-27T00:53:55.113Z,95850.00
2023-02-27T00:54:55.153Z,95850.00
2023-02-27T00:55:55.229Z,95850.00
2023-02-27T00:56:54.301Z,95848.00
2023-02-27T00:57:55.383Z,95846.00
2023-02-27T00:58:55.432Z,95848.00
2023-02-27T00:59:55.455Z,95850.00
2023-02-27T01:00:55.584Z,95850.00
2023-02-27T01:01:55.568Z,95850.00
2023-02-27T01:02:54.659Z,95848.00
2023-02-27T01:03:54.704Z,95852.00
2023-02-27T01:04:56.269Z,95850.00
2023-02-27T01:05:55.834Z,95848.00
2023-02-27T01:06:55.905Z,95848.00
2023-02-27T01:07:55.970Z,95846.00
2023-02-27T01:08:56.036Z,95846.00
2023-02-27T01:09:56.094Z,95846.00
2023-02-27T01:10:56.161Z,95846.00
2023-02-27T01:11:56.255Z,95846.00
2023-02-27T01:12:55.286Z,95846.00
2023-02-27T01:13:56.345Z,95848.00
2023-02-27T01:14:56.403Z,95850.00
2023-02-27T01:15:56.472Z,95850.00
2023-02-27T01:16:56.542Z,95850.00
2023-02-27T01:17:56.592Z,95850.00
2023-02-27T01:18:56.661Z,95852.00
2023-02-27T01:19:56.729Z,95852.00
2023-02-27T01:20:56.788Z,95852.00
2023-02-27T01:21:55.855Z,95854.00
2023-02-27T01:22:55.917Z,95854.00
2023-02-27T01:23:56.972Z,95854.00
2023-02-27T01:24:57.044Z,95854.00
2023-02-27T01:25:57.092Z,95852.00
2023-02-27T01:26:57.155Z,95858.00
2023-02-27T01:27:56.258Z,95854.00
2023-02-27T01:28:56.276Z,95854.00
2023-02-27T01:29:56.340Z,95852.00
2023-02-27T01:30:57.475Z,95856.00
2023-02-27T01:31:57.653Z,95856.00
2023-02-27T01:32:57.507Z,95854.00
2023-02-27T01:33:57.575Z,95854.00
2023-02-27T01:34:56.646Z,95856.00
2023-02-27T01:35:56.720Z,95858.00
2023-02-27T01:36:57.763Z,95858.00
2023-02-27T01:37:57.805Z,95856.00
2023-02-27T01:38:56.887Z,95856.00
2023-02-27T01:39:57.944Z,95860.00
2023-02-27T01:40:56.999Z,95860.00
2023-02-27T01:41:58.050Z,95858.00
2023-02-27T01:42:58.114Z,95856.00
2023-02-27T01:43:58.196Z,95858.00
2023-02-27T01:44:58.239Z,95854.00
2023-02-27T01:45:58.314Z,95858.00
2023-02-27T01:46:58.376Z,95856.00
2023-02-27T01:47:58.433Z,95854.00
2023-02-27T01:48:58.488Z,95852.00
2023-02-27T01:49:58.567Z,95850.00
2023-02-27T01:50:57.638Z,95850.00
2023-02-27T01:51:58.670Z,95850.00
2023-02-27T01:52:58.725Z,95852.00
2023-02-27T01:53:58.787Z,95852.00
2023-02-27T01:54:57.831Z,95852.00
2023-02-27T01:55:58.907Z,95850.00
2023-02-27T01:56:58.972Z,95846.00
2023-02-27T01:57:59.021Z,95850.00
2023-02-27T01:58:59.080Z,95846.00
2023-02-27T01:59:59.145Z,95850.00
2023-02-27T02:00:59.280Z,95850.00
2023-02-27T02:01:59.314Z,95848.00
2023-02-27T02:02:59.323Z,95848.00
2023-02-27T02:03:59.381Z,95848.00
2023-02-27T02:04:59.455Z,95848.00
2023-02-27T02:05:58.485Z,95848.00
2023-02-27T02:06:59.547Z,95848.00
2023-02-27T02:07:59.599Z,95846.00
2023-02-27T02:08:59.682Z,95850.00
2023-02-27T02:09:59.741Z,95850.00
2023-02-27T02:10:59.789Z,95852.00
2023-02-27T02:11:59.853Z,95852.00
2023-02-27T02:12:58.918Z,95852.00
2023-02-27T02:13:59.964Z,95854.00
2023-02-27T02:15:00.039Z,95852.00
2023-02-27T02:15:59.114Z,95856.00
2023-02-27T02:17:00.208Z,95854.00
2023-02-27T02:18:00.210Z,95856.00
2023-02-27T02:18:59.269Z,95860.00
2023-02-27T02:20:00.345Z,95858.00
2023-02-27T02:20:59.385Z,95862.00
2023-02-27T02:22:00.448Z,95860.00
2023-02-27T02:23:00.510Z,95858.00
2023-02-27T02:24:00.564Z,95858.00
2023-02-27T02:25:00.635Z,95858.00
2023-02-27T02:25:59.691Z,95860.00
2023-02-27T02:26:59.771Z,95860.00
2023-02-27T02:28:00.810Z,95858.00
2023-02-27T02:28:59.879Z,95858.00
2023-02-27T02:30:00.943Z,95858.00
2023-02-27T02:31:01.117Z,95858.00
2023-02-27T02:32:01.171Z,95858.00
2023-02-27T02:33:01.161Z,95858.00
2023-02-27T02:34:00.188Z,95856.00
2023-02-27T02:35:00.286Z,95858.00
2023-02-27T02:36:01.309Z,95856.00
2023-02-27T02:37:00.373Z,95858.00
2023-02-27T02:38:00.466Z,95858.00
2023-02-27T02:39:01.510Z,95858.00
2023-02-27T02:40:01.597Z,95860.00
2023-02-27T02:41:01.642Z,95858.00
2023-02-27T02:42:01.717Z,95856.00
2023-02-27T02:43:01.753Z,95856.00
2023-02-27T02:44:01.820Z,95858.00
2023-02-27T02:45:01.896Z,95858.00
2023-02-27T02:46:02.064Z,95860.00
2023-02-27T02:47:01.996Z,95860.00
2023-02-27T02:48:02.084Z,95860.00
2023-02-27T02:49:01.134Z,95860.00
2023-02-27T02:50:01.210Z,95860.00
2023-02-27T02:51:02.259Z,95860.00
2023-02-27T02:52:02.326Z,95860.00
2023-02-27T02:53:02.378Z,95858.00
2023-02-27T02:54:02.438Z,95862.00
2023-02-27T02:55:02.498Z,95864.00
2023-02-27T02:56:02.556Z,95860.00
2023-02-27T02:57:02.650Z,95860.00
2023-02-27T02:58:02.691Z,95860.00
2023-02-27T02:59:02.751Z,95862.00
2023-02-27T03:00:02.810Z,95862.00
2023-02-27T03:01:03.047Z,95860.00
2023-02-27T03:02:02.939Z,95864.00
2023-02-27T03:03:03.004Z,95862.00
2023-02-27T03:04:03.154Z,95862.00
2023-02-27T03:05:02.120Z,95858.00
2023-02-27T03:06:03.205Z,95860.00
2023-02-27T03:07:03.246Z,95862.00
2023-02-27T03:08:03.359Z,95864.00
2023-02-27T03:09:02.379Z,95862.00
2023-02-27T03:10:02.453Z,95862.00
2023-02-27T03:11:03.519Z,95860.00
2023-02-27T03:12:03.567Z,95862.00
2023-02-27T03:13:03.608Z,95858.00
2023-02-27T03:14:03.638Z,95860.00
2023-02-27T03:15:02.663Z,95862.00
2023-02-27T03:16:02.824Z,95860.00
2023-02-27T03:17:03.750Z,95860.00
2023-02-27T03:18:03.809Z,95862.00
2023-02-27T03:19:02.858Z,95858.00
2023-02-27T03:20:03.929Z,95862.00
2023-02-27T03:21:03.981Z,95862.00
2023-02-27T03:22:04.025Z,95864.00
2023-02-27T03:23:03.059Z,95862.00
2023-02-27T03:24:04.136Z,95862.00
2023-02-27T03:25:03.140Z,95862.00
2023-02-27T03:26:04.181Z,95864.00
2023-02-27T03:27:04.239Z,95864.00
2023-02-27T03:28:04.286Z,95864.00
2023-02-27T03:29:04.339Z,95864.00
2023-02-27T03:30:03.385Z,95866.00
2023-02-27T03:31:04.555Z,95870.00
2023-02-27T03:32:04.620Z,95870.00
2023-02-27T03:33:03.541Z,95874.00
2023-02-27T03:34:04.577Z,95874.00
2023-02-27T03:35:03.637Z,95870.00
2023-02-27T03:36:03.745Z,95870.00
2023-02-27T03:37:03.741Z,95872.00
2023-02-27T03:38:04.788Z,95872.00
2023-02-27T03:39:04.824Z,95872.00
2023-02-27T03:40:04.867Z,95870.00
2023-02-27T03:41:04.941Z,95872.00
2023-02-27T03:42:04.993Z,95870.00
2023-02-27T03:43:05.040Z,95878.00
2023-02-27T03:44:05.058Z,95874.00
2023-02-27T03:45:05.138Z,95874.00
2023-02-27T03:46:05.170Z,95878.00
2023-02-27T03:47:04.193Z,95876.00
2023-02-27T03:48:05.242Z,95876.00
2023-02-27T03:49:05.286Z,95878.00
2023-02-27T03:50:05.338Z,95876.00
2023-02-27T03:51:05.389Z,95880.00
2023-02-27T03:52:05.451Z,95882.00
2023-02-27T03:53:05.476Z,95882.00
2023-02-27T03:54:05.520Z,95882.00
2023-02-27T03:55:05.574Z,95880.00
2023-02-27T03:56:05.650Z,95882.00
2023-02-27T03:57:04.685Z,95884.00
2023-02-27T03:58:05.742Z,95886.00
2023-02-27T03:59:05.800Z,95888.00
2023-02-27T04:00:05.844Z,95882.00
2023-02-27T04:01:05.896Z,95888.00
2023-02-27T04:02:05.037Z,95888.00
2023-02-27T04:03:05.116Z,95882.00
2023-02-27T04:04:05.037Z,95884.00
2023-02-27T04:05:05.088Z,95886.00
2023-02-27T04:06:06.165Z,95888.00
2023-02-27T04:07:06.209Z,95886.00
2023-02-27T04:08:06.307Z,95888.00
2023-02-27T04:09:06.322Z,95888.00
2023-02-27T04:10:05.393Z,95882.00
2023-02-27T04:11:06.444Z,95892.00
2023-02-27T04:12:06.502Z,95890.00
2023-02-27T04:13:06.574Z,95892.00
2023-02-27T04:14:06.634Z,95892.00
2023-02-27T04:15:06.681Z,95890.00
2023-02-27T04:16:06.876Z,95890.00
2023-02-27T04:17:06.798Z,95890.00
2023-02-27T04:18:06.869Z,95890.00
2023-02-27T04:19:06.916Z,95892.00
2023-02-27T04:20:05.991Z,95893.00
2023-02-27T04:21:07.048Z,95897.00
2023-02-27T04:22:07.115Z,95897.00
2023-02-27T04:23:06.183Z,95895.00
2023-02-27T04:24:07.277Z,95893.00
2023-02-27T04:25:06.292Z,95895.00
2023-02-27T04:26:07.360Z,95895.00
2023-02-27T04:27:07.419Z,95892.00
2023-02-27T04:28:07.516Z,95892.00
2023-02-27T04:29:07.558Z,95897.00
2023-02-27T04:30:06.585Z,95895.00
2023-02-27T04:31:07.702Z,95897.00
2023-02-27T04:32:06.843Z,95895.00
2023-02-27T04:33:06.717Z,95893.00
2023-02-27T04:34:07.775Z,95893.00
2023-02-27T04:35:07.801Z,95899.00
2023-02-27T04:36:07.830Z,95893.00
2023-02-27T04:37:07.868Z,95895.00
2023-02-27T04:38:06.878Z,95895.00
2023-02-27T04:39:07.915Z,95895.00
2023-02-27T04:40:07.960Z,95893.00
2023-02-27T04:41:07.943Z,95895.00
2023-02-27T04:42:06.970Z,95893.00
2023-02-27T04:43:07.986Z,95893.00
2023-02-27T04:44:08.014Z,95893.00
2023-02-27T04:45:08.066Z,95893.00
2023-02-27T04:46:07.131Z,95892.00
2023-02-27T04:47:07.083Z,95895.00
2023-02-27T04:48:08.108Z,95893.00
2023-02-27T04:49:07.124Z,95893.00
2023-02-27T04:50:08.147Z,95895.00
2023-02-27T04:51:07.589Z,95897.00
2023-02-27T04:52:07.192Z,95897.00
2023-02-27T04:53:08.217Z,95897.00
2023-02-27T04:54:08.225Z,95895.00
2023-02-27T04:55:08.262Z,95893.00
2023-02-27T04:56:08.302Z,95897.00
2023-02-27T04:57:08.279Z,95893.00
2023-02-27T04:58:08.291Z,95895.00
2023-02-27T04:59:08.343Z,95893.00
2023-02-27T05:00:08.330Z,95892.00
2023-02-27T05:01:07.345Z,95893.00
2023-02-27T05:02:07.472Z,95893.00
2023-02-27T05:03:08.391Z,95892.00
2023-02-27T05:04:07.398Z,95892.00
2023-02-27T05:05:08.404Z,95892.00
2023-02-27T05:06:08.427Z,95890.00
2023-02-27T05:07:07.452Z,95890.00
2023-02-27T05:08:08.452Z,95888.00
2023-02-27T05:09:08.483Z,95890.00
2023-02-27T05:10:08.514Z,95890.00
2023-02-27T05:11:08.549Z,95892.00
2023-02-27T05:12:08.610Z,95890.00
2023-02-27T05:13:08.588Z,95890.00
2023-02-27T05:14:08.613Z,95892.00
2023-02-27T05:15:07.630Z,95888.00
2023-02-27T05:16:07.760Z,95890.00
2023-02-27T05:17:08.608Z,95892.00
2023-02-27T05:18:08.719Z,95888.00
2023-02-27T05:19:07.637Z,95890.00
2023-02-27T05:20:07.687Z,95892.00
2023-02-27T05:21:08.684Z,95892.00
2023-02-27T05:22:08.720Z,95888.00
2023-02-27T05:23:08.728Z,95892.00
2023-02-27T05:24:08.730Z,95888.00
2023-02-27T05:25:08.755Z,95888.00
2023-02-27T05:26:08.750Z,95886.00
2023-02-27T05:27:08.776Z,95888.00
2023-02-27T05:28:08.814Z,95884.00
2023-02-27T05:29:08.787Z,95884.00
2023-02-27T05:30:08.830Z,95886.00
2023-02-27T05:31:08.833Z,95888.00
2023-02-27T05:32:09.023Z,95890.00
2023-02-27T05:33:08.883Z,95888.00
2023-02-27T05:34:08.896Z,95890.00
2023-02-27T05:35:08.940Z,95888.00
2023-02-27T05:36:09.038Z,95888.00
2023-02-27T05:37:08.004Z,95890.00
2023-02-27T05:38:09.009Z,95892.00
2023-02-27T05:39:09.045Z,95888.00
2023-02-27T05:40:09.031Z,95888.00
2023-02-27T05:41:09.450Z,95888.00
2023-02-27T05:42:09.068Z,95888.00
2023-02-27T05:43:09.091Z,95886.00
2023-02-27T05:44:09.143Z,95886.00
2023-02-27T05:45:09.136Z,95888.00
2023-02-27T05:46:09.214Z,95888.00
2023-02-27T05:47:08.188Z,95888.00
2023-02-27T05:48:09.134Z,95888.00
2023-02-27T05:49:08.159Z,95890.00
2023-02-27T05:50:09.163Z,95888.00
2023-02-27T05:51:09.187Z,95890.00
2023-02-27T05:52:09.193Z,95888.00
2023-02-27T05:53:08.211Z,95886.00
2023-02-27T05:54:09.235Z,95886.00
2023-02-27T05:55:08.241Z,95890.00
2023-02-27T05:56:09.301Z,95892.00
2023-02-27T05:57:09.279Z,95892.00
2023-02-27T05:58:09.298Z,95893.00
2023-02-27T05:59:08.301Z,95890.00
2023-02-27T06:00:09.340Z,95892.00
2023-02-27T06:01:08.323Z,95892.00
2023-02-27T06:02:09.415Z,95892.00
2023-02-27T06:03:09.421Z,95893.00
2023-02-27T07:38:12.446Z,95927.00
2023-02-27T07:39:12.513Z,95927.00
2023-02-27T07:40:12.566Z,95927.00
2023-02-27T07:42:12.690Z,95929.00
2023-02-27T07:43:12.749Z,95929.00
2023-02-27T07:44:12.765Z,95935.00
2023-02-27T07:46:12.938Z,95933.00
2023-02-27T07:47:12.934Z,95931.00
2023-02-27T07:48:12.987Z,95927.00
2023-02-27T07:49:13.033Z,95929.00
2023-02-27T07:50:13.093Z,95929.00
2023-02-27T07:51:13.170Z,95929.00
2023-02-27T07:52:13.306Z,95927.00
2023-02-27T07:53:13.258Z,95927.00
2023-02-27T07:54:13.328Z,95927.00
2023-02-27T07:55:13.394Z,95929.00
2023-02-27T07:56:13.458Z,95933.00
2023-02-27T07:57:13.758Z,95933.00
2023-02-27T07:58:14.245Z,95935.00
2023-02-27T07:59:13.608Z,95937.00
2023-02-27T08:00:13.690Z,95939.00
2023-02-27T08:01:13.742Z,95941.00
2023-02-27T08:02:13.796Z,95941.00
2023-02-27T08:03:13.817Z,95939.00
2023-02-27T08:04:13.936Z,95941.00
2023-02-27T08:05:13.941Z,95941.00
2023-02-27T08:06:14.016Z,95941.00
2023-02-27T08:07:14.073Z,95943.00
2023-02-27T08:08:14.013Z,95943.00
2023-02-27T08:09:14.074Z,95943.00
2023-02-27T08:10:14.071Z,95945.00
2023-02-27T08:11:14.111Z,95947.00
2023-02-27T08:12:14.148Z,95947.00
2023-02-27T08:13:14.177Z,95947.00
2023-02-27T08:14:14.164Z,95949.00
2023-02-27T08:15:14.189Z,95949.00
2023-02-27T08:16:13.307Z,95949.00
2023-02-27T08:17:14.305Z,95949.00
2023-02-27T08:18:14.239Z,95949.00
2023-02-27T08:19:14.261Z,95949.00
2023-02-27T08:20:14.271Z,95949.00
2023-02-27T08:21:14.291Z,95951.00
2023-02-27T08:22:14.316Z,95949.00
2023-02-27T08:23:14.357Z,95949.00
2023-02-27T08:24:13.309Z,95949.00
2023-02-27T08:25:14.342Z,95947.00
2023-02-27T08:26:14.316Z,95949.00
2023-02-27T08:27:14.352Z,95954.00
2023-02-27T08:28:14.334Z,95953.00
2023-02-27T08:29:16.849Z,95954.00
2023-02-27T08:30:14.341Z,95951.00
2023-02-27T08:31:14.400Z,95949.00
2023-02-27T08:32:14.407Z,95951.00
2023-02-27T08:33:14.314Z,95951.00
2023-02-27T08:34:14.307Z,95954.00
2023-02-27T08:35:14.296Z,95949.00
2023-02-27T08:36:13.337Z,95953.00
2023-02-27T08:37:14.277Z,95954.00
2023-02-27T08:38:14.269Z,95953.00
2023-02-27T08:39:14.290Z,95953.00
2023-02-27T08:40:14.247Z,95958.00
2023-02-27T08:41:13.240Z,95958.00
2023-02-27T08:42:13.229Z,95960.00
2023-02-27T08:43:13.291Z,95958.00
2023-02-27T08:44:14.224Z,95960.00
2023-02-27T08:45:14.236Z,95960.00
2023-02-27T08:46:14.281Z,95962.00
2023-02-27T08:47:14.204Z,95962.00
2023-02-27T08:48:14.266Z,95966.00
2023-02-27T08:49:14.188Z,95966.00
2023-02-27T08:50:14.180Z,95966.00
2023-02-27T08:51:14.184Z,95968.00
2023-02-27T08:52:14.182Z,95962.00
2023-02-27T08:53:14.269Z,95968.00
2023-02-27T08:54:14.158Z,95968.00
2023-02-27T08:55:14.174Z,95966.00
2023-02-27T08:56:14.154Z,95964.00
2023-02-27T08:57:14.121Z,95970.00
2023-02-27T08:58:13.120Z,95970.00
2023-02-27T08:59:14.120Z,95970.00
2023-02-27T09:00:13.187Z,95972.00
2023-02-27T09:01:14.181Z,95972.00
2023-02-27T09:02:14.101Z,95974.00
2023-02-27T09:03:14.097Z,95976.00
2023-02-27T09:04:13.079Z,95972.00
2023-02-27T09:05:13.070Z,95974.00
2023-02-27T09:06:13.058Z,95978.00
2023-02-27T09:07:14.079Z,95972.00
2023-02-27T09:08:14.055Z,95972.00
2023-02-27T09:09:14.036Z,95978.00
2023-02-27T09:10:13.035Z,95972.00
2023-02-27T09:11:14.046Z,95974.00
2023-02-27T09:12:14.029Z,95974.00
2023-02-27T09:13:14.018Z,95978.00
2023-02-27T09:14:13.064Z,95976.00
2023-02-27T09:15:14.132Z,95976.00
2023-02-27T09:16:14.265Z,95976.00
2023-02-27T09:17:13.245Z,95980.00
2023-02-27T09:18:14.319Z,95976.00
2023-02-27T09:19:14.401Z,95978.00
2023-02-27T09:20:14.423Z,95980.00
2023-02-27T09:21:14.482Z,95980.00
2023-02-27T09:22:13.529Z,95982.00
2023-02-27T09:23:14.628Z,95982.00
2023-02-27T09:24:20.080Z,95984.00
2023-02-27T09:25:14.659Z,95988.00
2023-02-27T09:26:14.642Z,95990.00
2023-02-27T09:27:14.669Z,95990.00
2023-02-27T09:28:14.631Z,95990.00
2023-02-27T09:29:14.618Z,95988.00
2023-02-27T09:30:14.627Z,95992.00
2023-02-27T09:31:14.651Z,95992.00
2023-02-27T09:32:14.743Z,95994.00
2023-02-27T09:33:13.591Z,95992.00
2023-02-27T09:34:14.594Z,95994.00
2023-02-27T09:35:14.563Z,95998.00
2023-02-27T09:36:14.583Z,95996.00
2023-02-27T09:37:14.557Z,96000.00
2023-02-27T09:38:13.561Z,95998.00
2023-02-27T09:39:14.544Z,96000.00
2023-02-27T09:40:14.533Z,95998.00
2023-02-27T09:41:13.539Z,96001.00
2023-02-27T09:42:14.511Z,96003.00
2023-02-27T09:43:14.863Z,96001.00
2023-02-27T09:44:14.549Z,95996.00
2023-02-27T09:45:14.503Z,96001.00
2023-02-27T09:46:13.561Z,95996.00
2023-02-27T09:47:14.494Z,96001.00
2023-02-27T09:48:14.486Z,96001.00
2023-02-27T09:49:14.472Z,96005.00
2023-02-27T09:50:13.469Z,96005.00
2023-02-27T09:51:14.465Z,96007.00
2023-02-27T09:52:14.454Z,96007.00
2023-02-27T09:53:13.462Z,96007.00
2023-02-27T09:54:14.437Z,96007.00
2023-02-27T09:55:14.433Z,96009.00
2023-02-27T09:56:14.657Z,96013.00
2023-02-27T09:57:13.418Z,96013.00
2023-02-27T09:58:14.794Z,96013.00
2023-02-27T09:59:14.462Z,96013.00
2023-02-27T10:00:14.390Z,96013.00
2023-02-27T10:01:14.385Z,96015.00
2023-02-27T10:02:13.428Z,96013.00
2023-02-27T10:03:14.490Z,96017.00
2023-02-27T10:04:13.434Z,96015.00
2023-02-27T10:05:14.453Z,96011.00
2023-02-27T10:06:14.502Z,96015.00
2023-02-27T10:07:13.540Z,96011.00
2023-02-27T10:08:14.589Z,96013.00
2023-02-27T10:09:14.627Z,96015.00
2023-02-27T10:10:14.662Z,96015.00
2023-02-27T10:11:14.708Z,96015.00
2023-02-27T10:12:14.758Z,96017.00
2023-02-27T10:13:14.801Z,96019.00
2023-02-27T10:14:13.873Z,96023.00
2023-02-27T10:15:13.937Z,96019.00
2023-02-27T10:16:14.995Z,96021.00
2023-02-27T10:17:14.981Z,96025.00
2023-02-27T10:19:15.081Z,96029.00
2023-02-27T10:20:15.126Z,96029.00
2023-02-27T10:21:14.171Z,96029.00
2023-02-27T10:22:15.220Z,96031.00
2023-02-27T10:23:15.263Z,96029.00
2023-02-27T10:24:14.337Z,96029.00
2023-02-27T10:26:14.461Z,96031.00
2023-02-27T10:27:15.542Z,96033.00
2023-02-27T10:28:15.619Z,96035.00
2023-02-27T10:29:15.619Z,96033.00
2023-02-27T10:30:23.588Z,96037.00
2023-02-27T10:31:15.815Z,96033.00
2023-02-27T10:32:15.816Z,96031.00
2023-02-27T10:33:15.684Z,96035.00
2023-02-27T10:34:15.675Z,96035.00
2023-02-27T10:35:14.652Z,96035.00
2023-02-27T10:36:30.651Z,96031.00
2023-02-27T10:37:15.635Z,96033.00
2023-02-27T10:38:15.682Z,96033.00
2023-02-27T10:39:14.625Z,96037.00
2023-02-27T10:40:15.636Z,96037.00
2023-02-27T10:41:15.612Z,96037.00
2023-02-27T10:42:15.594Z,96039.00
2023-02-27T10:43:15.620Z,96037.00
2023-02-27T10:44:14.593Z,96041.00
2023-02-27T10:45:16.373Z,96041.00
2023-02-27T10:46:15.667Z,96037.00
2023-02-27T10:47:15.656Z,96039.00
2023-02-27T10:48:15.602Z,96043.00
2023-02-27T10:49:18.311Z,96041.00
2023-02-27T10:50:15.536Z,96041.00
2023-02-27T10:51:15.536Z,96039.00
2023-02-27T10:52:15.527Z,96039.00
2023-02-27T10:53:15.531Z,96041.00
2023-02-27T10:54:15.516Z,96039.00
2023-02-27T10:55:15.496Z,96043.00
2023-02-27T10:56:15.504Z,96039.00
2023-02-27T10:57:15.498Z,96041.00
2023-02-27T10:58:14.486Z,96035.00
2023-02-27T10:59:14.493Z,96035.00
2023-02-27T11:00:14.456Z,96037.00
2023-02-27T11:01:15.507Z,96039.00
2023-02-27T11:02:15.453Z,96037.00
2023-02-27T11:03:15.475Z,96039.00
2023-02-27T11:04:15.457Z,96041.00
2023-02-27T11:05:15.436Z,96043.00
2023-02-27T11:06:14.440Z,96041.00
2023-02-27T11:07:15.411Z,96043.00
2023-02-27T11:08:15.421Z,96039.00
2023-02-27T11:09:15.418Z,96041.00
2023-02-27T11:10:14.397Z,96041.00
2023-02-27T11:11:15.382Z,96043.00
2023-02-27T11:12:15.377Z,96043.00
2023-02-27T11:13:15.389Z,96045.00
2023-02-27T11:14:15.374Z,96043.00
2023-02-27T11:15:15.386Z,96041.00
2023-02-27T11:16:15.526Z,96043.00
2023-02-27T11:17:14.353Z,96039.00
2023-02-27T11:18:15.325Z,96043.00
2023-02-27T11:19:15.404Z,96043.00
2023-02-27T11:20:15.497Z,96041.00
2023-02-27T11:21:15.488Z,96041.00
2023-02-27T11:22:15.548Z,96043.00
2023-02-27T11:23:15.602Z,96039.00
2023-02-27T11:24:15.640Z,96045.00
2023-02-27T11:25:15.698Z,96047.00
2023-02-27T11:26:15.733Z,96043.00
2023-02-27T11:27:14.769Z,96045.00
2023-02-27T11:28:15.827Z,96037.00
2023-02-27T11:29:15.880Z,96041.00
2023-02-27T11:30:17.126Z,96047.00
2023-02-27T11:31:16.029Z,96045.00
2023-02-27T11:32:16.085Z,96039.00
2023-02-27T11:33:16.094Z,96039.00
2023-02-27T11:34:15.154Z,96039.00
2023-02-27T11:35:16.224Z,96037.00
2023-02-27T11:36:17.890Z,96041.00
2023-02-27T11:37:16.234Z,96039.00
2023-02-27T11:38:16.229Z,96039.00
2023-02-27T11:39:16.218Z,96033.00
2023-02-27T11:40:16.270Z,96033.00
2023-02-27T11:41:16.198Z,96039.00
2023-02-27T11:42:17.383Z,96041.00
2023-02-27T11:43:16.199Z,96041.00
2023-02-27T11:44:16.336Z,96037.00
2023-02-27T11:45:16.171Z,96041.00
2023-02-27T11:46:46.883Z,96043.00
2023-02-27T11:47:16.196Z,96043.00
2023-02-27T11:48:16.141Z,96041.00
2023-02-27T11:49:16.121Z,96043.00
2023-02-27T11:50:16.124Z,96039.00
2023-02-27T11:51:15.142Z,96043.00
2023-02-27T11:52:16.113Z,96039.00
2023-02-27T11:53:15.107Z,96041.00
2023-02-27T11:54:15.126Z,96043.00
2023-02-27T11:55:16.111Z,96047.00
2023-02-27T11:56:16.080Z,96045.00
2023-02-27T11:57:16.072Z,96043.00
2023-02-27T11:58:16.074Z,96045.00
2023-02-27T11:59:15.060Z,96039.00
2023-02-27T12:00:15.124Z,96037.00
2023-02-27T12:01:16.046Z,96041.00
2023-02-27T12:02:16.027Z,96043.00
2023-02-27T12:03:15.122Z,96041.00
2023-02-27T12:04:16.127Z,96043.00
2023-02-27T12:05:16.090Z,96045.00
2023-02-27T12:06:15.996Z,96041.00
2023-02-27T12:07:16.027Z,96039.00
2023-02-27T12:08:15.986Z,96041.00
2023-02-27T12:09:15.986Z,96041.00
2023-02-27T12:10:14.971Z,96045.00
2023-02-27T12:11:16.017Z,96045.00
2023-02-27T12:12:15.971Z,96045.00
2023-02-27T12:13:16.008Z,96045.00
2023-02-27T12:14:16.059Z,96041.00
2023-02-27T12:15:16.118Z,96045.00
2023-02-27T12:16:15.199Z,96045.00
2023-02-27T12:17:16.263Z,96047.00
2023-02-27T12:18:15.301Z,96045.00
2023-02-27T12:19:16.382Z,96047.00
2023-02-27T12:20:15.423Z,96043.00
2023-02-27T12:21:15.472Z,96041.00
2023-02-27T12:22:16.552Z,96043.00
2023-02-27T12:23:16.572Z,96043.00
2023-02-27T12:24:16.620Z,96043.00
2023-02-27T12:25:16.673Z,96045.00
2023-02-27T12:26:16.721Z,96045.00
2023-02-27T12:27:16.756Z,96043.00
2023-02-27T12:28:16.799Z,96045.00
2023-02-27T12:29:16.826Z,96043.00
2023-02-27T12:30:15.867Z,96041.00
2023-02-27T12:31:16.977Z,96041.00
2023-02-27T12:32:16.036Z,96041.00
2023-02-27T12:33:15.973Z,96045.00
2023-02-27T12:34:16.980Z,96043.00
2023-02-27T12:35:16.989Z,96043.00
2023-02-27T12:36:16.993Z,96045.00
2023-02-27T12:37:17.001Z,96047.00
2023-02-27T12:38:16.002Z,96045.00
2023-02-27T12:39:17.368Z,96045.00
2023-02-27T12:40:17.015Z,96045.00
2023-02-27T12:41:17.008Z,96047.00
2023-02-27T12:42:17.012Z,96047.00
2023-02-27T12:43:17.020Z,96047.00
2023-02-27T12:44:16.053Z,96047.00
2023-02-27T12:45:17.045Z,96045.00
2023-02-27T12:46:17.054Z,96045.00
2023-02-27T12:47:17.084Z,96047.00
2023-02-27T12:48:17.123Z,96048.00
2023-02-27T12:49:16.114Z,96043.00
2023-02-27T12:50:17.133Z,96043.00
2023-02-27T12:51:17.136Z,96039.00
2023-02-27T12:52:16.139Z,96041.00
2023-02-27T12:53:17.176Z,96039.00
2023-02-27T12:54:17.206Z,96037.00
2023-02-27T12:55:17.244Z,96039.00
2023-02-27T12:56:17.212Z,96041.00
2023-02-27T12:57:17.228Z,96037.00
2023-02-27T12:58:17.280Z,96037.00
2023-02-27T12:59:16.266Z,96037.00
2023-02-27T13:00:16.277Z,96037.00
2023-02-27T13:01:16.319Z,96037.00
2023-02-27T13:02:17.303Z,96035.00
2023-02-27T13:03:17.342Z,96031.00
2023-02-27T13:04:16.401Z,96035.00
2023-02-27T13:05:17.406Z,96033.00
2023-02-27T13:06:17.447Z,96031.00
2023-02-27T13:07:17.456Z,96033.00
2023-02-27T13:08:16.475Z,96031.00
2023-02-27T13:09:17.501Z,96033.00
2023-02-27T13:10:16.525Z,96033.00
2023-02-27T13:11:17.621Z,96035.00
2023-02-27T13:12:16.588Z,96037.00
2023-02-27T13:13:17.606Z,96035.00
2023-02-27T13:14:17.634Z,96037.00
2023-02-27T13:15:17.672Z,96033.00
2023-02-27T13:16:17.742Z,96031.00
2023-02-27T13:17:17.726Z,96033.00
2023-02-27T13:18:16.715Z,96033.00
2023-02-27T13:19:17.756Z,96031.00
2023-02-27T13:20:16.778Z,96029.00
2023-02-27T13:21:17.799Z,96029.00
2023-02-27T13:22:17.827Z,96033.00
2023-02-27T13:23:17.840Z,96033.00